createdAt,value
2023-03-18T00:01:04.210Z,6.17
2023-03-18T00:02:05.921Z,6.21
2023-03-18T00:03:07.540Z,6.26
2023-03-18T00:04:09.622Z,6.25
2023-03-18T00:05:12.989Z,6.22
2023-03-18T00:06:18.530Z,6.24
2023-03-18T00:07:20.151Z,6.26
2023-03-18T00:08:21.967Z,6.29
2023-03-18T00:09:24.064Z,6.25
2023-03-18T00:10:25.579Z,6.28
2023-03-18T00:11:27.313Z,6.30
2023-03-18T00:12:28.857Z,6.35
2023-03-18T00:13:30.384Z,6.42
2023-03-18T00:14:32.957Z,6.50
2023-03-18T00:15:34.510Z,6.54
2023-03-18T00:16:36.944Z,6.48
2023-03-18T00:17:40.262Z,6.47
2023-03-18T00:18:42.514Z,6.50
2023-03-18T00:19:44.273Z,6.51
2023-03-18T00:20:46.067Z,6.52
2023-03-18T00:21:47.703Z,6.59
2023-03-18T00:22:49.325Z,6.63
2023-03-18T00:23:56.365Z,6.59
2023-03-18T00:24:57.953Z,6.56
2023-03-18T00:26:01.385Z,6.59
2023-03-18T00:27:03.670Z,6.68
2023-03-18T00:28:07.116Z,6.73
2023-03-18T00:29:08.840Z,6.78
2023-03-18T00:30:12.583Z,6.84
2023-03-18T00:31:14.251Z,6.90
2023-03-18T00:32:15.869Z,6.94
2023-03-18T00:33:18.928Z,6.98
2023-03-18T00:34:21.011Z,7.01
2023-03-18T00:35:23.926Z,7.04
2023-03-18T00:36:28.517Z,7.07
2023-03-18T00:37:30.738Z,7.11
2023-03-18T00:38:33.721Z,7.14
2023-03-18T00:39:35.696Z,7.17
2023-03-18T00:40:43.410Z,7.18
2023-03-18T00:41:45.363Z,7.23
2023-03-18T00:42:57.490Z,7.22
2023-03-18T00:43:59.617Z,7.23
2023-03-18T00:45:01.195Z,7.22
2023-03-18T00:46:03.607Z,7.20
2023-03-18T00:47:05.564Z,7.22
2023-03-18T00:48:07.896Z,7.24
2023-03-18T00:49:09.710Z,7.24
2023-03-18T00:50:12.452Z,7.26
2023-03-18T00:51:17.143Z,7.22
2023-03-18T00:52:19.704Z,7.16
2023-03-18T00:53:21.573Z,7.09
2023-03-18T00:54:24.862Z,7.09
2023-03-18T00:55:27.471Z,7.00
2023-03-18T00:56:32.026Z,6.95
2023-03-18T00:57:33.954Z,6.95
2023-03-18T00:58:37.200Z,6.91
2023-03-18T00:59:38.748Z,6.81
2023-03-18T01:00:41.398Z,6.67
2023-03-18T01:01:43.047Z,6.51
2023-03-18T01:02:44.724Z,6.36
2023-03-18T01:03:47.805Z,6.29
2023-03-18T01:04:51.014Z,6.05
2023-03-18T01:05:53.567Z,5.95
2023-03-18T01:06:55.092Z,5.78
2023-03-18T01:07:57.834Z,5.68
2023-03-18T01:09:01.462Z,5.55
2023-03-18T01:10:03.371Z,5.35
2023-03-18T01:11:05.724Z,5.18
2023-03-18T01:12:09.164Z,5.11
2023-03-18T01:13:10.694Z,5.13
2023-03-18T01:14:12.448Z,5.09
2023-03-18T01:15:17.749Z,5.01
2023-03-18T01:16:21.022Z,4.96
2023-03-18T01:17:22.632Z,4.93
2023-03-18T01:18:24.566Z,4.92
2023-03-18T01:19:26.748Z,4.94
2023-03-18T01:20:29.283Z,4.89
2023-03-18T01:21:30.877Z,4.90
2023-03-18T01:22:32.666Z,4.90
2023-03-18T01:23:35.345Z,4.92
2023-03-18T01:24:36.979Z,4.92
2023-03-18T01:25:38.814Z,4.93
2023-03-18T01:26:40.397Z,4.96
2023-03-18T01:27:42.754Z,4.99
2023-03-18T01:28:44.346Z,5.08
2023-03-18T01:29:46.920Z,5.10
2023-03-18T01:30:49.273Z,5.11
2023-03-18T01:31:51.407Z,5.13
2023-03-18T01:32:54.075Z,5.19
2023-03-18T01:33:56.184Z,5.20
2023-03-18T01:34:58.252Z,5.19
2023-03-18T01:36:02.407Z,5.12
2023-03-18T01:37:04.086Z,5.10
2023-03-18T01:38:06.301Z,4.97
2023-03-18T01:39:08.536Z,4.99
2023-03-18T01:40:12.004Z,4.96
2023-03-18T01:41:13.641Z,4.99
2023-03-18T01:42:18.180Z,5.00
2023-03-18T01:43:26.390Z,5.03
2023-03-18T01:44:28.132Z,5.08
2023-03-18T01:45:30.684Z,5.12
2023-03-18T01:46:41.145Z,4.95
2023-03-18T01:47:44.811Z,4.88
2023-03-18T01:48:46.470Z,4.89
2023-03-18T01:49:50.184Z,4.91
2023-03-18T01:50:59.306Z,5.01
2023-03-18T01:52:02.993Z,4.99
2023-03-18T01:53:09.321Z,4.94
2023-03-18T01:54:13.062Z,4.90
2023-03-18T01:55:20.919Z,4.85
2023-03-18T01:56:22.476Z,4.77
2023-03-18T01:57:24.244Z,4.68
2023-03-18T01:58:29.713Z,4.62
2023-03-18T01:59:34.197Z,4.63
2023-03-18T02:00:41.898Z,4.64
2023-03-18T02:01:55.999Z,4.62
2023-03-18T02:02:58.365Z,4.62
2023-03-18T02:04:01.118Z,4.69
2023-03-18T02:05:06.704Z,4.70
2023-03-18T02:06:10.134Z,4.80
2023-03-18T02:07:21.671Z,4.89
2023-03-18T02:08:23.433Z,4.95
2023-03-18T02:09:25.061Z,4.94
2023-03-18T02:10:30.244Z,4.93
2023-03-18T02:11:34.722Z,4.96
2023-03-18T02:12:41.756Z,5.00
2023-03-18T02:13:46.018Z,5.02
2023-03-18T02:14:49.349Z,5.09
2023-03-18T02:15:57.720Z,5.05
2023-03-18T02:17:10.448Z,4.97
2023-03-18T02:18:21.040Z,4.86
2023-03-18T02:19:54.887Z,4.73
2023-03-18T02:21:08.309Z,4.76
2023-03-18T02:22:45.108Z,4.82
2023-03-18T02:24:06.182Z,4.69
2023-03-18T02:25:23.030Z,4.67
2023-03-18T02:26:48.136Z,4.68
2023-03-18T02:27:54.867Z,4.65
2023-03-18T02:29:03.162Z,4.70
2023-03-18T02:30:11.403Z,4.78
2023-03-18T02:31:16.710Z,4.84
2023-03-18T02:32:20.772Z,4.87
2023-03-18T02:33:26.702Z,4.86
2023-03-18T02:34:29.157Z,4.89
2023-03-18T02:35:32.237Z,4.94
2023-03-18T02:36:35.726Z,4.99
2023-03-18T02:37:38.281Z,5.06
2023-03-18T02:38:44.109Z,5.11
2023-03-18T02:39:45.641Z,5.08
2023-03-18T02:40:47.214Z,4.96
2023-03-18T02:41:49.015Z,4.95
2023-03-18T02:42:50.972Z,4.92
2023-03-18T02:43:53.430Z,4.93
2023-03-18T02:44:55.551Z,4.82
2023-03-18T02:46:07.302Z,4.68
2023-03-18T02:47:13.382Z,4.71
2023-03-18T02:48:18.980Z,4.52
2023-03-18T02:49:21.670Z,4.51
2023-03-18T02:50:24.443Z,4.51
2023-03-18T02:51:27.242Z,4.60
2023-03-18T02:52:28.812Z,4.71
2023-03-18T02:53:30.430Z,4.80
2023-03-18T02:54:32.877Z,4.90
2023-03-18T02:55:34.435Z,5.01
2023-03-18T02:56:37.950Z,5.08
2023-03-18T02:57:39.549Z,5.08
2023-03-18T02:58:41.255Z,5.10
2023-03-18T02:59:42.783Z,5.13
2023-03-18T03:00:44.614Z,5.13
2023-03-18T03:01:49.118Z,5.15
2023-03-18T03:02:50.986Z,5.17
2023-03-18T03:03:52.621Z,5.16
2023-03-18T03:04:54.244Z,5.10
2023-03-18T03:05:56.466Z,5.06
2023-03-18T03:07:01.437Z,5.02
2023-03-18T03:08:03.088Z,4.90
2023-03-18T03:09:06.963Z,4.73
2023-03-18T03:10:09.413Z,4.42
2023-03-18T03:11:11.590Z,4.01
2023-03-18T03:12:13.777Z,3.67
2023-03-18T03:13:15.690Z,3.55
2023-03-18T03:14:17.373Z,3.36
2023-03-18T03:15:19.387Z,3.29
2023-03-18T03:16:21.345Z,3.23
2023-03-18T03:17:22.877Z,3.14
2023-03-18T03:18:24.595Z,3.07
2023-03-18T03:19:26.125Z,3.00
2023-03-18T03:20:28.528Z,2.92
2023-03-18T03:21:30.536Z,2.87
2023-03-18T03:22:33.219Z,2.95
2023-03-18T03:23:35.703Z,3.03
2023-03-18T03:24:37.527Z,3.21
2023-03-18T03:25:40.136Z,3.38
2023-03-18T03:26:41.725Z,3.50
2023-03-18T03:27:43.711Z,3.57
2023-03-18T03:28:46.048Z,3.64
2023-03-18T03:29:47.772Z,3.71
2023-03-18T03:30:49.587Z,3.78
2023-03-18T03:31:51.474Z,3.84
2023-03-18T03:32:53.287Z,3.90
2023-03-18T03:33:54.879Z,3.94
2023-03-18T03:34:56.446Z,3.98
2023-03-18T03:35:58.303Z,4.02
2023-03-18T03:36:59.957Z,4.05
2023-03-18T03:38:02.079Z,4.08
2023-03-18T03:39:04.266Z,4.02
2023-03-18T03:40:06.424Z,4.08
2023-03-18T03:41:10.416Z,4.13
2023-03-18T03:42:11.965Z,4.17
2023-03-18T03:43:15.833Z,4.24
2023-03-18T03:44:17.372Z,4.22
2023-03-18T03:45:20.187Z,4.13
2023-03-18T03:46:21.867Z,3.92
2023-03-18T03:47:23.716Z,3.82
2023-03-18T03:48:25.345Z,3.81
2023-03-18T03:49:27.224Z,3.77
2023-03-18T03:50:29.173Z,3.71
2023-03-18T03:51:30.815Z,3.59
2023-03-18T03:52:32.928Z,3.47
2023-03-18T03:53:36.129Z,3.44
2023-03-18T03:54:38.278Z,3.39
2023-03-18T03:55:39.962Z,3.40
2023-03-18T03:56:42.329Z,3.41
2023-03-18T03:57:44.821Z,3.34
2023-03-18T03:58:46.829Z,3.33
2023-03-18T03:59:48.389Z,3.38
2023-03-18T04:00:49.937Z,3.33
2023-03-18T04:01:51.982Z,3.23
2023-03-18T04:02:54.376Z,3.18
2023-03-18T04:03:56.565Z,3.21
2023-03-18T04:04:58.137Z,3.14
2023-03-18T04:05:59.638Z,3.09
2023-03-18T04:07:01.230Z,3.10
2023-03-18T04:08:03.067Z,3.17
2023-03-18T04:09:04.719Z,3.21
2023-03-18T04:10:09.670Z,3.24
2023-03-18T04:11:11.230Z,3.24
2023-03-18T04:12:13.834Z,3.26
2023-03-18T04:13:15.364Z,3.32
2023-03-18T04:14:17.365Z,3.37
2023-03-18T04:15:21.972Z,3.42
2023-03-18T04:16:23.582Z,3.50
2023-03-18T04:17:25.646Z,3.57
2023-03-18T04:18:27.228Z,3.65
2023-03-18T04:19:29.133Z,3.71
2023-03-18T04:20:30.922Z,3.78
2023-03-18T04:21:33.070Z,3.82
2023-03-18T04:22:34.984Z,3.88
2023-03-18T04:23:36.581Z,3.91
2023-03-18T04:24:38.233Z,3.98
2023-03-18T04:25:40.049Z,4.01
2023-03-18T04:26:41.680Z,4.04
2023-03-18T04:27:43.422Z,4.04
2023-03-18T04:28:45.128Z,4.10
2023-03-18T04:29:46.838Z,4.13
2023-03-18T04:30:48.947Z,4.17
2023-03-18T04:31:51.199Z,4.19
2023-03-18T04:32:54.906Z,4.23
2023-03-18T04:33:57.431Z,4.27
2023-03-18T04:34:59.294Z,4.32
2023-03-18T04:36:01.059Z,4.33
2023-03-18T04:37:03.827Z,4.35
2023-03-18T04:38:05.866Z,4.38
2023-03-18T04:39:09.598Z,4.40
2023-03-18T04:40:12.473Z,4.42
2023-03-18T04:41:14.020Z,4.43
2023-03-18T04:42:16.543Z,4.45
2023-03-18T04:43:18.122Z,4.46
2023-03-18T04:44:19.632Z,4.48
2023-03-18T04:45:21.136Z,4.48
2023-03-18T04:46:22.928Z,4.50
2023-03-18T04:47:24.536Z,4.45
2023-03-18T04:48:27.176Z,4.39
2023-03-18T04:49:29.174Z,4.33
2023-03-18T04:50:30.980Z,4.31
2023-03-18T04:51:32.584Z,4.28
2023-03-18T04:52:34.822Z,4.33
2023-03-18T04:53:37.388Z,4.38
2023-03-18T04:54:39.733Z,4.42
2023-03-18T04:55:41.698Z,4.44
2023-03-18T04:56:43.836Z,4.37
2023-03-18T04:57:45.758Z,4.34
2023-03-18T04:58:47.633Z,4.36
2023-03-18T04:59:49.218Z,4.37
2023-03-18T05:00:50.805Z,4.40
2023-03-18T05:01:52.402Z,4.44
2023-03-18T05:02:54.074Z,4.48
2023-03-18T05:03:56.121Z,4.52
2023-03-18T05:04:57.996Z,4.54
2023-03-18T05:05:59.620Z,4.49
2023-03-18T05:07:01.215Z,4.51
2023-03-18T05:08:02.889Z,4.53
2023-03-18T05:09:05.673Z,4.58
2023-03-18T05:10:08.353Z,4.48
2023-03-18T05:11:09.900Z,4.43
2023-03-18T05:12:13.622Z,4.45
2023-03-18T05:13:16.212Z,4.41
2023-03-18T05:14:17.840Z,4.30
2023-03-18T05:15:19.470Z,4.36
2023-03-18T05:16:21.125Z,4.43
2023-03-18T05:17:22.728Z,4.51
2023-03-18T05:18:24.324Z,4.54
2023-03-18T05:19:25.930Z,4.52
2023-03-18T05:20:28.159Z,4.46
2023-03-18T05:21:30.565Z,4.43
2023-03-18T05:22:36.052Z,4.46
2023-03-18T05:23:39.134Z,4.53
2023-03-18T05:24:41.665Z,4.58
2023-03-18T05:25:43.313Z,4.50
2023-03-18T05:26:44.943Z,4.36
2023-03-18T05:27:47.703Z,4.26
2023-03-18T05:28:49.295Z,4.05
2023-03-18T05:29:50.837Z,4.07
2023-03-18T05:30:53.029Z,4.17
2023-03-18T05:31:54.614Z,4.26
2023-03-18T05:32:56.409Z,4.29
2023-03-18T05:33:58.025Z,4.25
2023-03-18T05:34:59.616Z,4.29
2023-03-18T05:36:01.856Z,4.31
2023-03-18T05:37:08.899Z,4.23
2023-03-18T05:38:10.489Z,4.15
2023-03-18T05:39:12.024Z,4.13
2023-03-18T05:40:14.740Z,4.04
2023-03-18T05:41:16.325Z,4.01
2023-03-18T05:42:18.246Z,3.98
2023-03-18T05:43:20.196Z,3.94
2023-03-18T05:44:21.729Z,3.91
2023-03-18T05:45:24.420Z,3.93
2023-03-18T05:46:27.098Z,3.98
2023-03-18T05:47:28.672Z,4.02
2023-03-18T05:48:30.206Z,4.05
2023-03-18T05:49:32.122Z,4.08
2023-03-18T05:50:37.117Z,4.08
2023-03-18T05:51:39.320Z,4.05
2023-03-18T05:52:40.915Z,4.09
2023-03-18T05:53:42.586Z,4.15
2023-03-18T05:54:44.783Z,4.17
2023-03-18T05:55:46.667Z,4.20
2023-03-18T05:56:48.402Z,4.26
2023-03-18T05:57:50.048Z,4.26
2023-03-18T05:58:52.157Z,4.31
2023-03-18T05:59:53.760Z,4.39
2023-03-18T06:00:56.159Z,4.41
2023-03-18T06:01:57.909Z,4.35
2023-03-18T06:03:01.222Z,4.36
2023-03-18T06:04:03.130Z,4.37
2023-03-18T06:05:05.121Z,4.36
2023-03-18T06:06:06.858Z,4.39
2023-03-18T06:07:08.483Z,4.41
2023-03-18T06:08:10.933Z,4.46
2023-03-18T06:09:13.471Z,4.37
2023-03-18T06:10:15.360Z,4.33
2023-03-18T06:11:17.107Z,4.34
2023-03-18T06:12:20.357Z,4.39
2023-03-18T06:13:22.577Z,4.39
2023-03-18T06:14:29.532Z,4.31
2023-03-18T06:15:32.412Z,4.31
2023-03-18T06:16:35.332Z,4.17
2023-03-18T06:17:37.269Z,3.93
2023-03-18T06:18:39.110Z,3.69
2023-03-18T06:19:40.796Z,3.46
2023-03-18T06:20:42.467Z,3.41
2023-03-18T06:21:44.129Z,3.49
2023-03-18T06:22:49.674Z,3.38
2023-03-18T06:23:51.986Z,3.36
2023-03-18T06:24:54.139Z,3.42
2023-03-18T06:25:56.139Z,3.39
2023-03-18T06:26:57.798Z,3.44
2023-03-18T06:27:59.313Z,3.47
2023-03-18T06:29:00.908Z,3.42
2023-03-18T06:30:04.738Z,3.37
2023-03-18T06:31:06.478Z,3.48
2023-03-18T06:32:08.257Z,3.45
2023-03-18T06:33:10.816Z,3.50
2023-03-18T06:34:13.053Z,3.52
2023-03-18T06:35:15.585Z,3.64
2023-03-18T06:36:17.793Z,3.84
2023-03-18T06:37:20.994Z,4.03
2023-03-18T06:38:22.854Z,4.12
2023-03-18T06:39:24.799Z,4.13
2023-03-18T06:40:26.422Z,4.15
2023-03-18T06:41:28.142Z,4.17
2023-03-18T06:42:29.785Z,4.26
2023-03-18T06:43:31.863Z,4.32
2023-03-18T06:44:33.468Z,4.45
2023-03-18T06:45:35.179Z,4.47
2023-03-18T06:46:37.294Z,4.45
2023-03-18T06:47:40.021Z,4.59
2023-03-18T06:48:42.318Z,4.65
2023-03-18T06:49:43.899Z,4.63
2023-03-18T06:50:46.474Z,4.72
2023-03-18T06:51:48.678Z,4.78
2023-03-18T06:52:50.211Z,4.96
2023-03-18T06:53:51.899Z,5.08
2023-03-18T06:54:53.513Z,5.24
2023-03-18T06:55:56.773Z,5.44
2023-03-18T06:56:58.868Z,5.69
2023-03-18T06:58:00.484Z,5.94
2023-03-18T06:59:02.094Z,6.07
2023-03-18T07:00:05.193Z,6.10
2023-03-18T07:01:08.377Z,6.32
2023-03-18T07:02:11.066Z,6.51
2023-03-18T07:03:13.517Z,6.71
2023-03-18T07:04:15.384Z,6.77
2023-03-18T07:05:17.245Z,6.89
2023-03-18T07:06:18.891Z,6.84
2023-03-18T07:07:21.182Z,6.93
2023-03-18T07:08:23.356Z,6.92
2023-03-18T07:09:24.879Z,6.98
2023-03-18T07:10:29.960Z,7.05
2023-03-18T07:11:31.575Z,7.16
2023-03-18T07:12:33.148Z,7.26
2023-03-18T07:13:34.742Z,7.19
2023-03-18T07:14:36.269Z,7.31
2023-03-18T07:15:39.216Z,7.29
2023-03-18T07:16:41.323Z,7.38
2023-03-18T07:17:43.542Z,7.58
2023-03-18T07:18:45.247Z,8.16
2023-03-18T07:19:46.980Z,8.73
2023-03-18T07:20:49.254Z,9.20
2023-03-18T07:21:51.024Z,9.60
2023-03-18T07:22:53.389Z,9.98
2023-03-18T07:23:55.559Z,10.17
2023-03-18T07:24:57.251Z,10.34
2023-03-18T07:25:58.905Z,10.56
2023-03-18T07:27:00.603Z,10.84
2023-03-18T07:28:02.286Z,10.99
2023-03-18T07:29:04.674Z,10.91
2023-03-18T07:30:09.525Z,10.93
2023-03-18T07:31:11.110Z,10.83
2023-03-18T07:32:12.777Z,10.84
2023-03-18T07:33:14.329Z,10.76
2023-03-18T07:34:17.807Z,10.90
2023-03-18T07:35:20.676Z,11.15
2023-03-18T07:36:22.248Z,11.21
2023-03-18T07:37:24.220Z,11.15
2023-03-18T07:38:25.806Z,11.16
2023-03-18T07:39:27.643Z,10.83
2023-03-18T07:40:29.200Z,10.72
2023-03-18T07:41:30.830Z,10.63
2023-03-18T07:42:33.634Z,10.86
2023-03-18T07:43:35.294Z,10.93
2023-03-18T07:44:37.658Z,10.52
2023-03-18T07:45:39.299Z,9.82
2023-03-18T07:46:41.305Z,9.29
2023-03-18T07:47:43.498Z,8.96
2023-03-18T07:48:46.686Z,8.85
2023-03-18T07:49:48.192Z,8.86
2023-03-18T07:50:49.977Z,9.12
2023-03-18T07:51:52.276Z,8.97
2023-03-18T07:52:54.025Z,8.74
2023-03-18T07:53:55.638Z,8.58
2023-03-18T07:54:57.329Z,8.59
2023-03-18T07:55:58.869Z,8.99
2023-03-18T07:57:00.452Z,9.34
2023-03-18T07:58:02.302Z,9.22
2023-03-18T07:59:03.956Z,9.23
2023-03-18T08:00:07.611Z,9.04
2023-03-18T08:01:09.489Z,9.18
2023-03-18T08:02:14.406Z,9.32
2023-03-18T08:03:16.711Z,9.29
2023-03-18T08:04:19.528Z,9.08
2023-03-18T08:05:22.116Z,9.02
2023-03-18T08:06:24.080Z,9.22
2023-03-18T08:07:25.751Z,9.25
2023-03-18T08:08:28.121Z,9.50
2023-03-18T08:09:29.731Z,9.74
2023-03-18T08:10:31.880Z,10.02
2023-03-18T08:11:33.608Z,10.09
2023-03-18T08:12:49.345Z,10.07
2023-03-18T08:13:53.972Z,10.25
2023-03-18T08:14:55.508Z,10.35
2023-03-18T08:15:57.440Z,10.45
2023-03-18T08:16:59.040Z,10.56
2023-03-18T08:18:00.794Z,10.82
2023-03-18T08:19:02.469Z,10.99
2023-03-18T08:20:05.286Z,11.02
2023-03-18T08:21:07.877Z,11.03
2023-03-18T08:22:10.128Z,11.10
2023-03-18T08:23:11.759Z,11.07
2023-03-18T08:24:14.035Z,10.96
2023-03-18T08:25:16.163Z,10.84
2023-03-18T08:26:17.698Z,10.78
2023-03-18T08:27:19.297Z,10.86
2023-03-18T08:28:21.010Z,10.97
2023-03-18T08:29:22.703Z,11.04
2023-03-18T08:30:28.636Z,11.07
2023-03-18T08:31:30.363Z,10.94
2023-03-18T08:32:32.710Z,10.90
2023-03-18T08:33:34.303Z,10.87
2023-03-18T08:34:37.032Z,10.76
2023-03-18T08:35:41.545Z,10.84
2023-03-18T08:36:43.123Z,10.89
2023-03-18T08:37:44.802Z,10.80
2023-03-18T08:38:46.394Z,10.75
2023-03-18T08:39:47.981Z,10.73
2023-03-18T08:40:49.566Z,10.73
2023-03-18T08:41:51.245Z,10.77
2023-03-18T08:42:53.318Z,10.88
2023-03-18T08:43:57.472Z,10.76
2023-03-18T08:44:59.379Z,10.73
2023-03-18T08:46:01.101Z,10.72
2023-03-18T08:47:02.831Z,10.62
2023-03-18T08:48:04.842Z,10.55
2023-03-18T08:49:07.760Z,10.42
2023-03-18T08:50:10.480Z,10.27
2023-03-18T08:51:12.346Z,9.93
2023-03-18T08:52:13.919Z,9.78
2023-03-18T08:53:16.476Z,9.58
2023-03-18T08:54:18.656Z,9.69
2023-03-18T08:55:21.476Z,9.61
2023-03-18T08:56:23.078Z,9.42
2023-03-18T08:57:27.892Z,9.51
2023-03-18T08:58:29.865Z,9.47
2023-03-18T08:59:31.461Z,9.46
2023-03-18T09:00:36.577Z,9.53
2023-03-18T09:01:38.469Z,9.58
2023-03-18T09:02:40.041Z,9.63
2023-03-18T09:03:41.636Z,9.72
2023-03-18T09:04:43.863Z,9.67
2023-03-18T09:05:48.629Z,9.67
2023-03-18T09:06:50.226Z,9.73
2023-03-18T09:07:53.252Z,9.66
2023-03-18T09:08:54.849Z,9.66
2023-03-18T09:09:56.471Z,9.72
2023-03-18T09:10:58.729Z,9.88
2023-03-18T09:12:01.183Z,10.07
2023-03-18T09:13:03.395Z,10.18
2023-03-18T09:14:05.261Z,10.27
2023-03-18T09:15:07.574Z,10.16
2023-03-18T09:16:09.136Z,10.05
2023-03-18T09:17:10.940Z,9.99
2023-03-18T09:18:13.749Z,9.95
2023-03-18T09:19:15.300Z,10.01
2023-03-18T09:20:18.025Z,10.14
2023-03-18T09:21:20.310Z,10.07
2023-03-18T09:22:22.843Z,10.09
2023-03-18T09:23:26.310Z,10.07
2023-03-18T09:24:27.867Z,9.94
2023-03-18T09:25:29.514Z,9.87
2023-03-18T09:26:31.054Z,9.85
2023-03-18T09:27:32.587Z,9.78
2023-03-18T09:28:34.221Z,9.75
2023-03-18T09:29:35.802Z,9.74
2023-03-18T09:30:38.151Z,9.90
2023-03-18T09:31:40.390Z,9.97
2023-03-18T09:32:43.501Z,10.08
2023-03-18T09:33:45.174Z,10.11
2023-03-18T09:34:46.826Z,10.23
2023-03-18T09:35:49.546Z,10.32
2023-03-18T09:36:51.576Z,10.44
2023-03-18T09:37:54.228Z,10.47
2023-03-18T09:38:56.105Z,10.61
2023-03-18T09:39:58.399Z,10.74
2023-03-18T09:41:16.491Z,10.91
2023-03-18T09:42:30.166Z,11.03
2023-03-18T09:44:05.470Z,11.21
2023-03-18T09:45:19.825Z,11.31
2023-03-18T09:46:43.272Z,11.29
2023-03-18T09:48:00.335Z,11.42
2023-03-18T09:49:33.195Z,11.50
2023-03-18T09:50:47.874Z,11.35
2023-03-18T09:52:21.650Z,11.22
2023-03-18T09:53:45.290Z,10.86
2023-03-18T09:54:49.609Z,10.58
2023-03-18T09:55:56.045Z,10.53
2023-03-18T09:56:58.506Z,10.69
2023-03-18T09:58:05.172Z,10.95
2023-03-18T09:59:29.569Z,11.09
2023-03-18T10:00:34.187Z,11.29
2023-03-18T10:01:39.335Z,11.22
2023-03-18T10:02:46.826Z,11.06
2023-03-18T10:03:54.575Z,11.15
2023-03-18T10:05:02.756Z,11.30
2023-03-18T10:06:24.765Z,11.42
2023-03-18T10:07:33.678Z,10.83
2023-03-18T10:08:56.480Z,10.71
2023-03-18T10:10:07.786Z,10.87
2023-03-18T10:11:36.222Z,10.63
2023-03-18T10:12:45.262Z,10.76
2023-03-18T10:13:57.247Z,10.88
2023-03-18T10:15:13.655Z,10.85
2023-03-18T10:16:23.721Z,10.96
2023-03-18T10:17:36.044Z,11.12
2023-03-18T10:18:42.106Z,11.30
2023-03-18T10:19:57.521Z,11.43
2023-03-18T10:21:05.097Z,11.44
2023-03-18T10:22:33.201Z,11.52
2023-03-18T10:23:44.717Z,11.57
2023-03-18T10:25:00.387Z,11.75
2023-03-18T10:26:13.029Z,11.92
2023-03-18T10:27:19.280Z,12.00
2023-03-18T10:28:35.784Z,12.03
2023-03-18T10:29:40.682Z,12.06
2023-03-18T10:31:00.699Z,12.05
2023-03-18T10:32:15.718Z,12.15
2023-03-18T10:33:41.787Z,12.33
2023-03-18T10:34:46.185Z,12.49
2023-03-18T10:36:12.500Z,12.65
2023-03-18T10:38:16.086Z,12.67
2023-03-18T10:39:22.665Z,12.73
2023-03-18T10:40:24.999Z,12.73
2023-03-18T10:41:33.703Z,12.73
2023-03-18T10:42:37.893Z,12.55
2023-03-18T10:43:39.871Z,12.47
2023-03-18T10:44:45.093Z,12.37
2023-03-18T10:45:52.055Z,12.27
2023-03-18T10:47:19.048Z,12.18
2023-03-18T10:48:42.384Z,12.14
2023-03-18T10:49:51.138Z,12.07
2023-03-18T10:51:03.722Z,11.94
2023-03-18T10:52:31.139Z,11.69
2023-03-18T10:53:45.881Z,11.44
2023-03-18T10:54:50.643Z,11.27
2023-03-18T10:56:09.471Z,11.27
2023-03-18T10:57:18.192Z,11.35
2023-03-18T10:58:20.130Z,11.45
2023-03-18T10:59:24.785Z,11.55
2023-03-18T11:00:28.444Z,11.63
2023-03-18T11:01:30.203Z,11.71
2023-03-18T11:02:39.049Z,11.76
2023-03-18T11:03:52.630Z,11.77
2023-03-18T11:05:00.068Z,11.72
2023-03-18T11:06:04.749Z,11.68
2023-03-18T11:07:11.255Z,11.74
2023-03-18T11:08:34.295Z,11.80
2023-03-18T11:09:39.533Z,11.90
2023-03-18T11:10:46.132Z,12.01
2023-03-18T11:11:49.868Z,12.09
2023-03-18T11:12:58.723Z,12.12
2023-03-18T11:14:02.741Z,12.04
2023-03-18T11:15:10.775Z,12.05
2023-03-18T11:16:23.155Z,11.99
2023-03-18T11:17:31.707Z,12.01
2023-03-18T11:18:35.736Z,12.07
2023-03-18T11:19:48.638Z,12.05
2023-03-18T11:21:13.041Z,12.06
2023-03-18T11:22:19.360Z,12.19
2023-03-18T11:23:48.584Z,12.31
2023-03-18T11:25:17.285Z,12.43
2023-03-18T11:26:26.330Z,12.47
2023-03-18T11:27:34.453Z,12.50
2023-03-18T11:28:42.231Z,12.54
2023-03-18T11:29:49.725Z,12.51
2023-03-18T11:30:56.177Z,12.49
2023-03-18T11:31:58.933Z,12.37
2023-03-18T11:33:04.560Z,12.28
2023-03-18T11:34:08.862Z,12.31
2023-03-18T11:35:20.303Z,12.49
2023-03-18T11:36:24.151Z,12.62
2023-03-18T11:37:40.799Z,12.67
2023-03-18T11:38:43.278Z,12.70
2023-03-18T11:39:44.783Z,12.65
2023-03-18T11:40:47.008Z,12.57
2023-03-18T11:41:49.352Z,12.25
2023-03-18T11:43:01.775Z,12.08
2023-03-18T11:44:18.595Z,12.07
2023-03-18T11:45:46.383Z,12.15
2023-03-18T11:46:47.982Z,12.22
2023-03-18T11:47:49.571Z,12.23
2023-03-18T11:48:52.221Z,12.20
2023-03-18T11:49:54.443Z,12.17
2023-03-18T11:51:29.486Z,12.36
2023-03-18T11:52:44.126Z,12.37
2023-03-18T11:53:57.768Z,12.26
2023-03-18T11:55:10.951Z,11.92
2023-03-18T11:56:12.416Z,11.74
2023-03-18T11:57:23.508Z,11.81
2023-03-18T11:58:31.438Z,11.84
2023-03-18T11:59:38.471Z,11.98
2023-03-18T12:00:52.655Z,12.06
2023-03-18T12:02:07.852Z,12.16
2023-03-18T12:03:09.774Z,12.20
2023-03-18T12:04:28.075Z,12.18
2023-03-18T12:05:44.614Z,12.35
2023-03-18T12:06:57.284Z,12.46
2023-03-18T12:08:48.018Z,12.63
2023-03-18T12:09:56.891Z,12.66
2023-03-18T12:11:09.723Z,12.75
2023-03-18T12:12:20.696Z,12.89
2023-03-18T12:13:31.711Z,12.95
2023-03-18T12:14:49.804Z,12.87
2023-03-18T12:15:58.182Z,12.72
2023-03-18T12:17:25.687Z,12.61
2023-03-18T12:18:48.658Z,12.61
2023-03-18T12:19:59.177Z,12.37
2023-03-18T12:21:12.110Z,12.32
2023-03-18T12:22:25.395Z,12.17
2023-03-18T12:24:21.570Z,12.00
2023-03-18T12:25:54.289Z,11.98
2023-03-18T12:27:37.277Z,11.76
2023-03-18T12:28:39.185Z,11.72
2023-03-18T12:30:10.002Z,11.82
2023-03-18T12:31:23.808Z,11.92
2023-03-18T12:32:40.421Z,11.90
2023-03-18T12:34:02.881Z,11.98
2023-03-18T12:35:18.804Z,12.05
2023-03-18T12:36:31.268Z,12.17
2023-03-18T12:37:58.974Z,12.28
2023-03-18T12:39:33.977Z,12.37
2023-03-18T12:40:51.252Z,12.49
2023-03-18T12:42:09.181Z,12.58
2023-03-18T12:43:17.366Z,12.62
2023-03-18T12:44:29.468Z,12.72
2023-03-18T12:45:37.844Z,12.85
2023-03-18T12:46:52.397Z,12.94
2023-03-18T12:48:04.552Z,12.99
2023-03-18T12:49:29.697Z,13.03
2023-03-18T12:50:38.409Z,13.01
2023-03-18T12:51:50.270Z,13.07
2023-03-18T12:53:01.013Z,13.05
2023-03-18T12:54:16.771Z,12.99
2023-03-18T12:55:27.208Z,12.84
2023-03-18T12:56:31.228Z,12.72
2023-03-18T12:57:36.053Z,12.54
2023-03-18T12:58:44.390Z,12.50
2023-03-18T12:59:53.272Z,12.40
2023-03-18T13:01:07.035Z,12.25
2023-03-18T13:02:28.541Z,12.26
2023-03-18T13:03:41.830Z,12.45
2023-03-18T13:04:53.785Z,12.52
2023-03-18T13:06:18.778Z,12.53
2023-03-18T13:07:36.359Z,12.46
2023-03-18T13:08:52.424Z,12.33
2023-03-18T13:10:21.733Z,12.27
2023-03-18T13:11:50.740Z,12.34
2023-03-18T13:13:03.811Z,12.43
2023-03-18T13:14:28.929Z,12.65
2023-03-18T13:15:36.806Z,12.84
2023-03-18T13:22:57.799Z,12.94
2023-03-18T13:24:05.315Z,12.94
2023-03-18T13:25:18.942Z,13.09
2023-03-18T13:26:32.271Z,13.20
2023-03-18T13:28:07.681Z,13.21
2023-03-18T13:29:32.360Z,12.97
2023-03-18T13:30:40.315Z,13.00
2023-03-18T13:31:52.463Z,13.10
2023-03-18T13:33:23.214Z,13.16
2023-03-18T13:34:44.223Z,13.22
2023-03-18T13:35:54.879Z,13.08
2023-03-18T13:37:12.341Z,12.86
2023-03-18T13:38:51.436Z,12.77
2023-03-18T13:40:20.731Z,12.77
2023-03-18T13:41:49.260Z,12.68
2023-03-18T13:42:55.892Z,12.56
2023-03-18T13:44:01.013Z,12.54
2023-03-18T13:45:02.567Z,12.50
2023-03-18T13:46:04.802Z,12.57
2023-03-18T13:47:09.213Z,12.69
2023-03-18T13:48:18.473Z,12.75
2023-03-18T13:49:29.979Z,12.77
2023-03-18T13:50:38.008Z,12.76
2023-03-18T13:51:40.018Z,12.70
2023-03-18T13:52:44.148Z,12.81
2023-03-18T13:53:49.685Z,12.89
2023-03-18T13:54:51.779Z,12.88
2023-03-18T13:55:56.214Z,12.88
2023-03-18T13:57:32.475Z,12.96
2023-03-18T13:58:36.428Z,13.00
2023-03-18T13:59:37.901Z,12.93
2023-03-18T14:00:43.195Z,12.90
2023-03-18T14:01:51.069Z,12.87
2023-03-18T14:03:30.684Z,12.82
2023-03-18T14:04:45.953Z,12.64
2023-03-18T14:05:50.377Z,12.66
2023-03-18T14:06:55.701Z,12.72
2023-03-18T14:07:57.447Z,12.72
2023-03-18T14:08:59.046Z,12.71
2023-03-18T14:10:17.164Z,12.65
2023-03-18T14:11:23.273Z,12.74
2023-03-18T14:12:32.689Z,12.66
2023-03-18T14:13:34.340Z,12.73
2023-03-18T14:14:48.084Z,12.55
2023-03-18T14:15:49.654Z,12.51
2023-03-18T14:16:53.105Z,12.55
2023-03-18T14:17:58.432Z,12.53
2023-03-18T14:19:19.144Z,12.53
2023-03-18T14:20:41.878Z,12.53
2023-03-18T14:21:52.920Z,12.53
2023-03-18T14:22:55.817Z,12.60
2023-03-18T14:24:13.943Z,12.62
2023-03-18T14:25:18.362Z,12.57
2023-03-18T14:26:22.908Z,12.55
2023-03-18T14:27:24.496Z,12.63
2023-03-18T14:28:26.990Z,12.64
2023-03-18T14:29:39.012Z,12.70
2023-03-18T14:30:54.357Z,12.71
2023-03-18T14:31:58.272Z,12.48
2023-03-18T14:33:03.060Z,11.95